Startpagina
METAR-TAF:

METAR-TAF

Vliegvelden :

Rock Springs - Sweetwater County Airport

Rock Springs, Wyoming, Verenigde Staten

breedte: 41-35-39N, lengte: 109-03-55W, hoogte: 2060 m

Actueel weer

Dit bericht is 36 minuten geleden gemaakt, om 08:54 UTC
Weinig wind
Temperatuur 14°C
Vochtigheid 21%
Druk 1017 hPa
Zicht: 16.1 km
Weinig wolken op 10000 ft

METAR: KRKS 190854Z AUTO 00000KT 10SM FEW100 14/M08 A3003 RMK AO2 SLP079 T01391078 56004

Tijdstip: 03:30 (09:30 UTC)

Verwachting

Dit bericht is 4 uur en het 4 minuten geleden gemaakt, om 05:26 UTC
Verwachting geldig van 19 om 06 UTC tot 20 om 06 UTC
Wind 5 kt uit variabele richting
Zicht: 10 km
Verspreide wolken op 10000 ft
Van 19 om 2000 UTC
Wind 12 kt uit het westzuidwesten met uitschieters tot 20 kt
Zicht: 10 km
Verspreide wolken op 10000 ft
Van 20 om 0100 UTC
Wind 8 kt uit het westen
Zicht: 10 km
Verspreide wolken op 10000 ft

TAF: KRKS 190526Z 1906/2006 VRB05KT P6SM SCT100 FM192000 25012G20KT P6SM SCT100 FM200100 28008KT P6SM SCT100

Waarnemingen en weersverwachtingen van meer dan 4000 vliegvelden (METAR en TAF).

De beschikbare stations zijn de gele en rode punten op de kaart.

Ga met uw muis naar het station om de naam te zien.

Klik dan om waarnemingen en weersverwachtingen te zien.

kaart wijzigen: klik op de groene knoppen met een zwart kruis om in te zoomen, op de groene knop met een streepje om uit te zoomen of op de groene pijlen voor aangrenzende kaarten.


METAR-TAF: